Time;durP1;ratioP1;P1;durP2;ratioP2;P2;SDS_P1;SDS_P2;PMS_P1;PMS_P2;Temp;Humidity;BMP_temperature;BMP_pressure;BME280_temperature;BME280_humidity;BME280_pressure;Samples;Min_cycle;Max_cycle;Signal;HPM_P1;HPM_P2
2022/01/05 00:02:06;;;;;;;0.10;0.10;;;;;;;5.33;87.73;95409.50;5096146;28;20198;-72
2022/01/05 00:04:33;;;;;;;0.20;0.17;;;;;;;5.31;89.78;95406.22;5094953;28;20683;-72
2022/01/05 00:06:59;;;;;;;0.20;0.20;;;;;;;5.25;89.69;95411.16;5094159;28;20522;-72
2022/01/05 00:09:26;;;;;;;0.20;0.20;;;;;;;5.25;91.88;95414.63;5093161;28;20202;-73
2022/01/05 00:11:54;;;;;;;0.10;0.10;;;;;;;5.34;90.20;95420.81;5093830;28;21467;-73
2022/01/05 00:14:20;;;;;;;0.10;0.10;;;;;;;5.28;90.01;95422.19;5094262;28;20212;-72
2022/01/05 00:16:46;;;;;;;0.10;0.10;;;;;;;5.27;87.89;95420.56;5095025;28;20228;-73
2022/01/05 00:19:13;;;;;;;0.60;0.20;;;;;;;5.28;88.94;95413.53;5094836;28;20209;-71
2022/01/05 00:21:40;;;;;;;0.00;0.00;;;;;;;5.26;88.09;95418.06;5095266;28;20217;-72
2022/01/05 00:24:07;;;;;;;0.47;0.13;;;;;;;5.24;88.00;95420.03;5094828;28;20208;-74
2022/01/05 00:26:34;;;;;;;0.00;0.00;;;;;;;5.24;88.06;95420.84;5094989;28;20202;-73
2022/01/05 00:29:02;;;;;;;0.40;0.20;;;;;;;5.13;90.46;95412.31;5094732;28;20201;-72
2022/01/05 00:31:29;;;;;;;0.00;0.00;;;;;;;5.15;90.37;95416.44;5093768;28;20245;-73
2022/01/05 00:33:57;;;;;;;0.00;0.00;;;;;;;5.17;91.18;95413.69;5094590;28;20312;-72
2022/01/05 00:36:23;;;;;;;0.13;0.10;;;;;;;5.21;91.28;95409.81;5094041;28;20637;-72
2022/01/05 00:38:50;;;;;;;0.13;0.13;;;;;;;5.19;91.52;95422.22;5093185;28;20537;-73
2022/01/05 00:41:16;;;;;;;0.20;0.20;;;;;;;5.20;90.72;95419.47;5094246;28;20221;-72
2022/01/05 00:43:43;;;;;;;0.10;0.10;;;;;;;5.11;91.57;95420.28;5095486;28;20197;-73
2022/01/05 00:46:10;;;;;;;0.17;0.17;;;;;;;5.14;92.41;95427.03;5093665;28;20210;-71
2022/01/05 00:48:37;;;;;;;0.10;0.10;;;;;;;5.06;92.27;95421.69;5093326;28;20209;-74
2022/01/05 00:51:06;;;;;;;0.10;0.10;;;;;;;5.11;93.19;95422.91;5092597;28;20226;-72
2022/01/05 00:53:33;;;;;;;0.20;0.20;;;;;;;5.14;92.35;95421.81;5093368;28;20209;-71
2022/01/05 00:56:00;;;;;;;0.30;0.20;;;;;;;5.16;93.53;95430.38;5093068;28;20209;-72
2022/01/05 00:58:26;;;;;;;0.40;0.40;;;;;;;5.23;89.68;95424.44;5092545;28;20206;-73
2022/01/05 01:00:53;;;;;;;0.27;0.27;;;;;;;5.28;90.91;95443.16;5092502;28;20205;-72
2022/01/05 01:03:21;;;;;;;0.10;0.10;;;;;;;5.36;89.69;95439.84;5093912;28;20293;-72
2022/01/05 01:05:47;;;;;;;0.23;0.20;;;;;;;5.26;87.86;95446.91;5093770;28;20209;-72
2022/01/05 01:08:14;;;;;;;0.40;0.30;;;;;;;5.21;87.58;95442.06;5094522;28;20206;-72
2022/01/05 01:10:40;;;;;;;0.20;0.20;;;;;;;5.16;88.57;95449.53;5096591;28;20226;-72
2022/01/05 01:13:07;;;;;;;0.10;0.10;;;;;;;5.25;88.65;95455.72;5095659;28;20292;-72
2022/01/05 01:15:33;;;;;;;0.00;0.00;;;;;;;5.12;86.90;95452.56;5097422;28;20206;-73
2022/01/05 01:18:00;;;;;;;0.00;0.00;;;;;;;5.13;85.93;95452.44;5093309;28;20206;-71
2022/01/05 01:20:27;;;;;;;0.10;0.00;;;;;;;4.99;89.40;95456.28;5092595;28;20197;-73
2022/01/05 01:22:54;;;;;;;0.10;0.10;;;;;;;4.95;90.76;95459.34;5094370;28;20209;-72
2022/01/05 01:25:20;;;;;;;0.10;0.10;;;;;;;4.96;89.96;95469.66;5095360;28;20405;-72
2022/01/05 01:27:47;;;;;;;0.10;0.10;;;;;;;4.96;90.58;95480.13;5096330;28;20202;-72
2022/01/05 01:30:13;;;;;;;0.10;0.10;;;;;;;4.93;90.06;95476.97;5096222;28;20221;-71
2022/01/05 01:32:40;;;;;;;0.10;0.10;;;;;;;4.85;88.52;95482.88;5098087;28;20197;-72
2022/01/05 01:35:08;;;;;;;0.30;0.20;;;;;;;4.90;89.25;95490.34;5107602;28;20262;-73
2022/01/05 01:37:36;;;;;;;0.50;0.03;;;;;;;4.86;88.50;95496.81;5106630;28;20205;-72
2022/01/05 01:40:03;;;;;;;0.30;0.20;;;;;;;4.82;88.14;95495.44;5105902;28;20614;-72
2022/01/05 01:42:30;;;;;;;0.10;0.10;;;;;;;4.83;88.05;95494.47;5107534;28;20194;-71
2022/01/05 01:44:56;;;;;;;0.10;0.10;;;;;;;4.81;88.08;95492.00;5117425;28;20178;-72
2022/01/05 01:47:23;;;;;;;0.00;0.00;;;;;;;4.93;87.46;95493.50;5117342;28;20231;-73
2022/01/05 01:49:49;;;;;;;0.17;0.17;;;;;;;4.84;87.58;95486.50;5117623;28;20174;-72
2022/01/05 01:52:16;;;;;;;0.20;0.20;;;;;;;4.85;86.42;95488.13;5117759;28;20218;-71
2022/01/05 01:54:44;;;;;;;0.10;0.10;;;;;;;4.80;88.59;95487.72;5116549;28;20202;-72
2022/01/05 01:57:10;;;;;;;0.47;0.17;;;;;;;4.77;87.93;95485.38;5116439;28;20204;-71
2022/01/05 01:59:37;;;;;;;1.00;0.10;;;;;;;4.67;89.64;95492.41;5111704;28;20271;-72
2022/01/05 02:02:05;;;;;;;0.10;0.10;;;;;;;4.68;90.26;95491.41;5096189;28;20205;-71
2022/01/05 02:04:32;;;;;;;0.10;0.10;;;;;;;4.71;89.94;95485.91;5094431;28;20303;-73
2022/01/05 02:06:58;;;;;;;0.20;0.20;;;;;;;4.73;90.10;95489.22;5094087;28;20391;-71
2022/01/05 02:09:27;;;;;;;0.00;0.00;;;;;;;4.68;87.16;95482.72;5093399;28;20206;-73
2022/01/05 02:11:55;;;;;;;0.20;0.20;;;;;;;4.65;90.51;95485.63;5096871;28;20225;-72
2022/01/05 02:14:21;;;;;;;0.67;0.10;;;;;;;4.63;90.10;95493.63;5101995;28;20213;-73
2022/01/05 02:16:48;;;;;;;0.10;0.10;;;;;;;4.59;89.39;95488.78;5107215;28;20205;-73
2022/01/05 02:19:15;;;;;;;0.00;0.00;;;;;;;4.42;90.49;95495.50;5109200;28;20201;-73
2022/01/05 02:21:43;;;;;;;0.00;0.00;;;;;;;4.58;89.10;95505.44;5100798;28;20205;-73
2022/01/05 02:24:10;;;;;;;0.10;0.10;;;;;;;4.61;88.37;95495.53;5096750;28;20515;-70
2022/01/05 02:26:38;;;;;;;0.10;0.10;;;;;;;4.60;87.93;95493.06;5096733;28;20206;-71
2022/01/05 02:29:05;;;;;;;0.00;0.00;;;;;;;4.41;85.80;95493.84;5096732;28;20198;-73
2022/01/05 02:31:31;;;;;;;0.00;0.00;;;;;;;4.38;88.26;95497.56;5095552;28;20220;-73
2022/01/05 02:33:58;;;;;;;0.10;0.10;;;;;;;4.34;87.84;95497.94;5095618;28;20652;-73
2022/01/05 02:36:24;;;;;;;0.00;0.00;;;;;;;4.29;86.09;95479.19;5096356;28;20213;-73
2022/01/05 02:38:53;;;;;;;0.00;0.00;;;;;;;4.33;86.83;95485.81;5096368;28;20217;-72
2022/01/05 02:41:20;;;;;;;0.00;0.00;;;;;;;4.29;87.85;95481.81;5097170;28;20197;-72
2022/01/05 02:43:46;;;;;;;0.00;0.00;;;;;;;4.27;88.01;95484.56;5096641;28;20208;-73
2022/01/05 02:46:15;;;;;;;0.20;0.10;;;;;;;4.13;89.80;95479.72;5096658;28;20210;-72
2022/01/05 02:48:42;;;;;;;0.10;0.10;;;;;;;4.09;88.40;95472.25;5097146;28;20198;-71
2022/01/05 02:51:09;;;;;;;0.00;0.00;;;;;;;4.10;88.01;95466.91;5096826;28;20218;-73
2022/01/05 02:53:35;;;;;;;0.10;0.10;;;;;;;3.98;88.55;95466.16;5096827;28;20213;-72
2022/01/05 02:56:04;;;;;;;0.00;0.00;;;;;;;3.91;90.67;95475.50;5096782;28;20197;-71
2022/01/05 02:58:30;;;;;;;0.10;0.10;;;;;;;4.24;86.74;95460.47;5097217;28;21426;-72
2022/01/05 03:00:57;;;;;;;0.10;0.10;;;;;;;4.07;87.94;95453.25;5097738;28;20201;-72
2022/01/05 03:03:23;;;;;;;0.00;0.00;;;;;;;4.12;89.53;95456.28;5097611;28;20204;-73
2022/01/05 03:05:50;;;;;;;0.10;0.10;;;;;;;4.16;89.50;95457.69;5096825;28;20212;-73
2022/01/05 03:08:16;;;;;;;0.30;0.20;;;;;;;4.09;89.71;95456.56;5097473;28;20205;-71
2022/01/05 03:10:43;;;;;;;0.10;0.10;;;;;;;4.15;88.71;95453.41;5102611;28;20213;-70
2022/01/05 03:13:11;;;;;;;0.10;0.10;;;;;;;4.24;89.96;95455.22;5097107;28;20478;-72
2022/01/05 03:15:37;;;;;;;0.10;0.10;;;;;;;4.22;90.11;95449.28;5102328;28;20202;-73
2022/01/05 03:18:04;;;;;;;0.10;0.10;;;;;;;4.30;90.94;95452.06;5098325;28;20310;-73
2022/01/05 03:20:31;;;;;;;0.10;0.10;;;;;;;4.44;90.37;95462.16;5098436;28;20198;-73
2022/01/05 03:22:57;;;;;;;0.10;0.10;;;;;;;4.32;89.36;95463.25;5098260;28;20216;-71
2022/01/05 03:25:24;;;;;;;0.13;0.13;;;;;;;4.21;92.44;95473.81;5099281;28;20197;-72
2022/01/05 03:27:52;;;;;;;0.10;0.10;;;;;;;4.29;91.08;95466.09;5098716;28;20209;-73
2022/01/05 03:30:23;;;;;;;0.10;0.10;;;;;;;4.40;90.51;95479.09;5099192;28;20202;-71
2022/01/05 03:33:08;;;;;;;0.10;0.10;;;;;;;4.39;90.63;95461.75;5103112;28;20233;-71
2022/01/05 03:35:37;;;;;;;0.10;0.10;;;;;;;4.41;89.72;95483.38;5099200;28;20617;-73
2022/01/05 03:38:04;;;;;;;0.20;0.20;;;;;;;4.42;88.45;95485.03;5095167;28;20229;-71
2022/01/05 03:40:32;;;;;;;0.20;0.20;;;;;;;4.37;87.73;95479.38;5094964;28;20637;-72
2022/01/05 03:42:58;;;;;;;0.40;0.20;;;;;;;4.41;88.02;95475.53;5095521;28;20289;-74
2022/01/05 03:45:26;;;;;;;0.20;0.20;;;;;;;4.37;89.10;95474.97;5094716;28;20194;-71
2022/01/05 03:47:53;;;;;;;0.30;0.30;;;;;;;4.43;88.95;95482.25;5094729;28;20229;-71
2022/01/05 03:50:19;;;;;;;0.30;0.30;;;;;;;4.47;88.45;95493.28;5094864;28;20197;-72
2022/01/05 03:52:45;;;;;;;0.40;0.40;;;;;;;4.49;87.24;95483.53;5094870;28;20233;-72
2022/01/05 03:55:12;;;;;;;0.33;0.33;;;;;;;4.40;87.97;95481.72;5094960;28;20216;-71
2022/01/05 03:57:39;;;;;;;0.30;0.30;;;;;;;4.39;88.26;95480.06;5096424;28;20213;-71
2022/01/05 04:00:06;;;;;;;0.20;0.20;;;;;;;4.43;88.65;95476.19;5102637;28;20209;-71
2022/01/05 04:02:34;;;;;;;0.27;0.27;;;;;;;4.42;88.57;95471.94;5118920;28;20237;-73
2022/01/05 04:05:01;;;;;;;0.40;0.40;;;;;;;4.40;88.83;95466.00;5114223;28;20213;-73
2022/01/05 04:07:27;;;;;;;0.30;0.30;;;;;;;4.29;89.54;95477.41;5111391;28;20202;-71
2022/01/05 04:09:53;;;;;;;0.20;0.20;;;;;;;4.32;90.98;95468.47;5102495;28;20197;-71
2022/01/05 04:12:20;;;;;;;0.40;0.40;;;;;;;4.26;91.51;95466.38;5096792;28;20229;-70
2022/01/05 04:14:47;;;;;;;0.20;0.20;;;;;;;4.26;92.32;95474.22;5097863;28;20208;-71
2022/01/05 04:17:13;;;;;;;0.40;0.40;;;;;;;4.27;89.46;95476.72;5099502;28;20213;-70
2022/01/05 04:19:41;;;;;;;0.47;0.47;;;;;;;4.30;90.48;95486.91;5094785;28;20202;-73
2022/01/05 04:22:07;;;;;;;0.63;0.63;;;;;;;4.36;88.96;95488.16;5099741;28;20209;-72
2022/01/05 04:24:34;;;;;;;0.50;0.50;;;;;;;4.31;89.95;95482.53;5093199;28;20208;-74
2022/01/05 04:27:00;;;;;;;0.50;0.50;;;;;;;4.36;89.71;95488.16;5092633;28;20206;-73
2022/01/05 04:29:27;;;;;;;0.83;0.83;;;;;;;4.30;89.15;95489.53;5093170;28;20211;-73
2022/01/05 04:31:54;;;;;;;0.50;0.50;;;;;;;4.33;89.37;95496.28;5093283;28;20221;-71
2022/01/05 04:34:21;;;;;;;0.60;0.60;;;;;;;4.37;92.08;95493.28;5092647;28;20197;-74
2022/01/05 04:36:49;;;;;;;0.50;0.50;;;;;;;4.26;92.37;95489.94;5092909;28;20213;-72
2022/01/05 04:39:15;;;;;;;0.80;0.80;;;;;;;4.18;92.25;95493.19;5093235;28;20205;-71
2022/01/05 04:41:41;;;;;;;0.60;0.60;;;;;;;4.15;92.69;95490.03;5092871;28;20266;-72
2022/01/05 04:44:08;;;;;;;0.97;0.47;;;;;;;4.05;92.63;95492.59;5092775;28;20214;-71
2022/01/05 04:46:35;;;;;;;0.50;0.50;;;;;;;4.03;93.05;95493.72;5092879;28;20240;-73
2022/01/05 04:49:01;;;;;;;0.50;0.50;;;;;;;4.10;93.07;95490.44;5093276;28;20226;-72
2022/01/05 04:51:28;;;;;;;0.50;0.50;;;;;;;4.15;93.24;95488.25;5092555;28;20212;-71
2022/01/05 04:53:55;;;;;;;0.30;0.30;;;;;;;4.18;94.32;95489.78;5091427;28;20225;-71
2022/01/05 04:56:22;;;;;;;0.60;0.60;;;;;;;4.24;92.48;95491.88;5092339;28;20212;-71
2022/01/05 04:58:48;;;;;;;0.50;0.50;;;;;;;4.21;92.90;95498.19;5092180;28;20210;-72
2022/01/05 05:01:15;;;;;;;0.40;0.40;;;;;;;4.25;92.61;95485.69;5092039;28;20206;-73
2022/01/05 05:03:41;;;;;;;0.60;0.53;;;;;;;4.24;92.08;95491.88;5092871;28;20194;-73
2022/01/05 05:06:08;;;;;;;0.50;0.50;;;;;;;4.26;91.58;95495.16;5092484;28;20206;-72
2022/01/05 05:08:34;;;;;;;0.47;0.47;;;;;;;4.27;91.64;95512.53;5092238;28;20217;-73
2022/01/05 05:11:02;;;;;;;0.40;0.40;;;;;;;4.24;91.74;95507.56;5092755;28;20201;-72
2022/01/05 05:13:29;;;;;;;0.87;0.60;;;;;;;4.26;93.61;95505.63;5094634;28;20232;-73
2022/01/05 05:15:55;;;;;;;0.40;0.40;;;;;;;4.27;91.89;95502.06;5093012;28;20201;-73
2022/01/05 05:18:21;;;;;;;0.43;0.43;;;;;;;4.28;93.40;95493.25;5097971;28;20198;-72
2022/01/05 05:20:48;;;;;;;0.70;0.70;;;;;;;4.23;92.58;95492.81;5093953;28;20206;-72
2022/01/05 05:23:16;;;;;;;0.60;0.60;;;;;;;4.30;92.07;95497.38;5093156;28;20194;-71
2022/01/05 05:25:42;;;;;;;0.53;0.53;;;;;;;4.33;92.00;95499.72;5092750;28;20202;-71
2022/01/05 05:28:10;;;;;;;0.40;0.40;;;;;;;4.30;91.91;95496.56;5091493;28;20201;-72
2022/01/05 05:30:37;;;;;;;0.50;0.50;;;;;;;4.28;92.43;95495.88;5092476;28;20212;-70
2022/01/05 05:33:04;;;;;;;0.73;0.50;;;;;;;4.36;92.06;95501.25;5092167;28;20336;-73
2022/01/05 05:35:31;;;;;;;0.30;0.30;;;;;;;4.35;91.16;95504.84;5092475;28;20202;-72
2022/01/05 05:37:58;;;;;;;0.40;0.40;;;;;;;4.44;91.50;95510.09;5091792;28;20201;-72
2022/01/05 05:40:24;;;;;;;3.43;0.50;;;;;;;4.29;90.72;95510.59;5092682;28;20202;-71
2022/01/05 05:42:52;;;;;;;0.60;0.60;;;;;;;4.32;91.38;95510.34;5095716;28;20201;-71
2022/01/05 05:45:20;;;;;;;0.50;0.40;;;;;;;4.37;92.57;95511.59;5101577;28;20202;-72
2022/01/05 05:47:46;;;;;;;0.20;0.20;;;;;;;4.44;91.88;95511.88;5096515;28;20225;-71
2022/01/05 05:50:13;;;;;;;0.20;0.20;;;;;;;4.50;90.96;95516.59;5097035;28;20209;-71
2022/01/05 05:52:39;;;;;;;0.20;0.20;;;;;;;4.39;91.43;95522.75;5098401;28;20233;-74
2022/01/05 05:55:07;;;;;;;0.30;0.20;;;;;;;4.41;90.92;95525.25;5104349;28;20205;-73
2022/01/05 05:57:33;;;;;;;0.17;0.17;;;;;;;4.41;91.13;95520.00;5121353;28;20217;-73
2022/01/05 05:59:59;;;;;;;0.20;0.20;;;;;;;4.41;91.65;95520.84;5121398;28;20193;-73
2022/01/05 06:02:27;;;;;;;0.20;0.20;;;;;;;4.51;90.57;95526.09;5104668;28;20213;-73
2022/01/05 06:04:54;;;;;;;0.10;0.10;;;;;;;4.40;91.61;95532.25;5097187;28;20213;-72
2022/01/05 06:07:20;;;;;;;0.20;0.20;;;;;;;4.45;90.36;95537.94;5099953;28;20264;-72
2022/01/05 06:09:47;;;;;;;0.10;0.10;;;;;;;4.47;89.79;95535.19;5111340;28;20205;-74
2022/01/05 06:12:13;;;;;;;0.10;0.10;;;;;;;4.40;91.35;95540.13;5105188;28;20237;-73
2022/01/05 06:14:39;;;;;;;0.87;0.37;;;;;;;4.34;90.95;95545.88;5096925;28;20217;-72
2022/01/05 06:17:06;;;;;;;0.20;0.20;;;;;;;4.34;91.88;95551.13;5095804;28;20205;-72
2022/01/05 06:19:34;;;;;;;0.33;0.30;;;;;;;4.30;91.57;95564.59;5095869;28;20194;-73
2022/01/05 06:22:00;;;;;;;0.53;0.33;;;;;;;4.32;92.61;95565.31;5095892;28;20198;-70
2022/01/05 06:24:27;;;;;;;1.10;0.10;;;;;;;4.42;91.98;95569.63;5095625;28;20242;-73
2022/01/05 06:26:54;;;;;;;0.10;0.10;;;;;;;4.55;90.09;95574.63;5096534;28;20205;-73
2022/01/05 06:29:21;;;;;;;0.20;0.20;;;;;;;4.54;91.53;95583.41;5095851;28;20487;-73
2022/01/05 06:31:48;;;;;;;1.10;0.30;;;;;;;4.49;89.68;95583.00;5094717;28;20201;-73
2022/01/05 06:34:15;;;;;;;0.10;0.10;;;;;;;4.51;90.60;95584.53;5095726;28;20210;-73
2022/01/05 06:36:43;;;;;;;0.00;0.00;;;;;;;4.52;89.86;95587.97;5095793;28;20205;-71
2022/01/05 06:39:09;;;;;;;0.10;0.10;;;;;;;4.47;90.95;95598.00;5095301;28;20301;-72
2022/01/05 06:41:36;;;;;;;0.10;0.10;;;;;;;4.52;90.94;95606.31;5095921;28;20200;-71
2022/01/05 06:44:02;;;;;;;0.40;0.17;;;;;;;4.45;90.92;95599.94;5096334;28;20202;-73
2022/01/05 06:46:29;;;;;;;0.30;0.30;;;;;;;4.49;91.07;95601.34;5095221;28;20238;-71
2022/01/05 06:48:55;;;;;;;0.10;0.10;;;;;;;4.50;91.09;95598.56;5099387;28;20209;-75
2022/01/05 06:51:21;;;;;;;0.50;0.30;;;;;;;4.48;90.40;95602.28;5102780;28;20209;-73
2022/01/05 06:53:49;;;;;;;0.20;0.20;;;;;;;4.49;91.42;95617.03;5102632;28;20233;-72
2022/01/05 06:56:16;;;;;;;0.30;0.30;;;;;;;4.42;89.80;95610.66;5102973;28;20197;-73
2022/01/05 06:58:42;;;;;;;0.33;0.30;;;;;;;4.39;90.09;95616.16;5104985;28;20287;-73
2022/01/05 07:01:09;;;;;;;0.30;0.30;;;;;;;4.37;90.98;95618.06;5099312;28;20190;-71
2022/01/05 07:03:35;;;;;;;1.77;0.70;;;;;;;4.34;90.64;95618.34;5098348;28;20216;-73
2022/01/05 07:06:02;;;;;;;0.73;0.50;;;;;;;4.34;91.70;95628.81;5097811;28;20198;-73
2022/01/05 07:08:28;;;;;;;0.10;0.10;;;;;;;4.35;89.28;95631.31;5098534;28;20198;-73
2022/01/05 07:10:56;;;;;;;0.47;0.40;;;;;;;4.41;89.65;95635.16;5099337;28;20544;-72
2022/01/05 07:13:23;;;;;;;0.20;0.20;;;;;;;4.36;90.34;95635.56;5102922;28;20217;-73
2022/01/05 07:15:49;;;;;;;0.60;0.60;;;;;;;4.41;90.29;95637.78;5112684;28;20219;-73
2022/01/05 07:18:16;;;;;;;0.70;0.60;;;;;;;4.46;88.21;95640.88;5109513;28;20197;-71
2022/01/05 07:20:42;;;;;;;0.73;0.73;;;;;;;4.45;87.64;95647.88;5112222;28;20194;-73
2022/01/05 07:23:10;;;;;;;1.50;1.40;;;;;;;4.35;86.95;95652.25;5110886;28;20198;-72
2022/01/05 07:25:37;;;;;;;0.97;0.97;;;;;;;4.31;88.04;95650.84;5105784;28;20220;-73
2022/01/05 07:28:05;;;;;;;0.93;0.90;;;;;;;4.31;88.51;95663.09;5105430;28;20193;-73
2022/01/05 07:30:32;;;;;;;1.37;1.20;;;;;;;4.18;88.41;95658.03;5107664;28;20208;-73
2022/01/05 07:32:58;;;;;;;0.83;0.83;;;;;;;4.25;88.65;95663.59;5101570;28;20222;-74
2022/01/05 07:35:25;;;;;;;0.87;0.50;;;;;;;4.24;87.99;95665.38;5103240;28;20217;-72
2022/01/05 07:37:51;;;;;;;0.83;0.70;;;;;;;4.30;88.16;95674.50;5104137;28;20210;-73
2022/01/05 07:40:18;;;;;;;1.30;0.93;;;;;;;4.23;88.57;95673.34;5104917;28;20220;-74
2022/01/05 07:42:44;;;;;;;0.87;0.60;;;;;;;4.16;88.67;95675.66;5109216;28;20205;-71
2022/01/05 07:45:12;;;;;;;0.50;0.50;;;;;;;4.11;89.22;95683.03;5107991;28;20312;-74
2022/01/05 07:47:39;;;;;;;0.70;0.70;;;;;;;4.10;89.97;95684.03;5104581;28;20245;-72
2022/01/05 07:50:11;;;;;;;0.50;0.50;;;;;;;4.11;90.60;95690.09;5101464;28;20215;-72
2022/01/05 07:52:38;;;;;;;0.60;0.60;;;;;;;4.19;90.83;95698.09;5103823;28;20214;-72
2022/01/05 07:55:07;;;;;;;0.60;0.60;;;;;;;4.21;90.59;95696.22;5118582;28;20182;-72
2022/01/05 07:57:34;;;;;;;2.03;1.80;;;;;;;4.25;87.69;95708.09;5119630;28;20215;-73
2022/01/05 08:00:00;;;;;;;1.47;1.00;;;;;;;4.26;88.07;95709.72;5119678;28;20181;-73
2022/01/05 08:02:28;;;;;;;0.90;0.83;;;;;;;4.28;87.85;95707.84;5105702;28;20220;-72
2022/01/05 08:04:55;;;;;;;0.73;0.73;;;;;;;4.35;86.83;95717.66;5096128;28;20629;-73
2022/01/05 08:07:21;;;;;;;0.77;0.73;;;;;;;4.36;87.17;95727.16;5095986;28;20718;-73
2022/01/05 08:09:47;;;;;;;0.70;0.70;;;;;;;4.37;86.88;95720.13;5095246;28;20201;-71
2022/01/05 08:12:14;;;;;;;0.90;0.90;;;;;;;4.46;86.07;95727.25;5094912;28;20205;-73
2022/01/05 08:14:40;;;;;;;0.83;0.83;;;;;;;4.41;86.44;95737.25;5095080;28;20222;-72
2022/01/05 08:17:07;;;;;;;1.07;0.70;;;;;;;4.41;85.80;95745.09;5117420;28;20188;-72
2022/01/05 08:19:35;;;;;;;0.90;0.90;;;;;;;4.39;85.74;95747.84;5118004;28;20212;-71
2022/01/05 08:22:01;;;;;;;0.53;0.53;;;;;;;4.37;86.22;95756.78;5113552;28;20290;-72
2022/01/05 08:24:28;;;;;;;0.80;0.80;;;;;;;4.45;86.03;95767.44;5102045;28;20212;-72
2022/01/05 08:26:54;;;;;;;1.93;0.97;;;;;;;4.36;85.31;95763.78;5097046;28;20297;-71
2022/01/05 08:29:21;;;;;;;0.97;0.87;;;;;;;4.31;86.52;95770.38;5095250;28;20205;-72
2022/01/05 08:31:47;;;;;;;0.70;0.67;;;;;;;4.29;85.77;95777.50;5095345;28;20197;-72
2022/01/05 08:34:14;;;;;;;0.73;0.73;;;;;;;4.30;86.16;95779.19;5095457;28;20236;-70
2022/01/05 08:36:42;;;;;;;0.80;0.80;;;;;;;4.31;86.22;95788.69;5094801;28;20202;-72
2022/01/05 08:39:08;;;;;;;0.83;0.83;;;;;;;4.31;84.93;95799.16;5094108;28;20209;-70
2022/01/05 08:41:35;;;;;;;0.60;0.60;;;;;;;4.29;84.99;95814.16;5094192;28;20624;-71
2022/01/05 08:44:01;;;;;;;0.80;0.80;;;;;;;4.24;84.56;95816.31;5092813;28;20197;-72
2022/01/05 08:46:28;;;;;;;0.80;0.80;;;;;;;4.29;84.46;95830.69;5092878;28;20672;-70
2022/01/05 08:48:54;;;;;;;1.77;1.00;;;;;;;4.27;82.65;95842.25;5092596;28;20633;-72
2022/01/05 08:51:21;;;;;;;0.93;0.93;;;;;;;4.30;83.52;95839.38;5093306;28;20209;-72
2022/01/05 08:53:48;;;;;;;1.57;1.00;;;;;;;4.28;83.84;95846.53;5092816;28;20230;-73
2022/01/05 08:56:15;;;;;;;0.90;0.90;;;;;;;4.29;84.42;95845.53;5093256;28;20224;-72
2022/01/05 08:58:41;;;;;;;0.80;0.80;;;;;;;4.37;84.04;95858.84;5093416;28;20206;-71
2022/01/05 09:01:11;;;;;;;1.00;1.00;;;;;;;4.21;84.02;95859.28;5093390;28;20216;-73
2022/01/05 09:03:37;;;;;;;1.10;1.07;;;;;;;4.32;83.73;95867.06;5093023;28;20197;-72
2022/01/05 09:06:04;;;;;;;1.10;0.90;;;;;;;4.26;84.05;95871.97;5092230;28;20202;-73
2022/01/05 09:08:30;;;;;;;0.90;0.90;;;;;;;4.25;83.32;95881.59;5092927;28;20259;-72
2022/01/05 09:10:58;;;;;;;1.40;1.30;;;;;;;4.23;84.44;95890.53;5093112;28;20528;-72
2022/01/05 09:13:24;;;;;;;1.90;1.07;;;;;;;4.21;83.98;95895.06;5092766;28;20222;-72
2022/01/05 09:15:51;;;;;;;0.90;0.90;;;;;;;4.24;82.94;95910.53;5092799;28;20224;-73
2022/01/05 09:18:18;;;;;;;1.17;1.00;;;;;;;4.18;84.24;95914.44;5091566;28;20210;-71
2022/01/05 09:20:45;;;;;;;0.80;0.80;;;;;;;4.17;84.89;95919.81;5091658;28;20669;-73
2022/01/05 09:23:11;;;;;;;0.93;0.93;;;;;;;4.13;84.95;95928.84;5091765;28;20202;-72
2022/01/05 09:25:38;;;;;;;1.23;1.10;;;;;;;4.22;81.20;95938.59;5092517;28;20209;-74
2022/01/05 09:28:07;;;;;;;1.60;1.30;;;;;;;4.20;81.31;95946.56;5093070;28;20217;-74
2022/01/05 09:30:33;;;;;;;2.07;1.60;;;;;;;4.15;82.03;95951.31;5092494;28;20214;-73
2022/01/05 09:33:00;;;;;;;1.40;1.30;;;;;;;4.18;80.60;95958.13;5093208;28;20406;-73
2022/01/05 09:35:27;;;;;;;1.70;1.20;;;;;;;4.06;80.31;95964.31;5092751;28;20224;-71
2022/01/05 09:38:06;;;;;;;1.40;1.30;;;;;;;3.89;81.55;95969.06;5092032;28;20199;-71
2022/01/05 09:43:19;;;;;;;1.80;1.30;;;;;;;3.93;80.32;95991.41;5093878;28;20546;-73
2022/01/05 09:45:53;;;;;;;2.03;1.77;;;;;;;3.92;80.16;95987.16;5093108;28;20205;-72
2022/01/05 09:48:28;;;;;;;3.07;1.17;;;;;;;3.85;79.83;96009.50;5091649;28;20225;-72
2022/01/05 09:50:58;;;;;;;2.13;1.70;;;;;;;3.72;80.00;96005.31;5092652;28;20243;-72
2022/01/05 09:53:25;;;;;;;2.10;1.43;;;;;;;3.74;80.08;96013.88;5090636;28;20213;-71
2022/01/05 09:55:52;;;;;;;1.60;1.50;;;;;;;3.84;79.34;96027.91;5092717;28;20220;-74
2022/01/05 09:58:22;;;;;;;3.67;1.53;;;;;;;3.62;79.60;96023.47;5092488;28;20595;-70
2022/01/05 10:00:49;;;;;;;2.17;1.60;;;;;;;3.68;80.28;96033.47;5092452;28;20210;-73
2022/01/05 10:03:16;;;;;;;2.20;1.40;;;;;;;3.70;80.50;96035.97;5092263;28;20277;-71
2022/01/05 10:05:43;;;;;;;2.00;1.80;;;;;;;3.70;78.72;96038.56;5091782;28;20629;-73
2022/01/05 10:08:11;;;;;;;1.40;1.30;;;;;;;3.60;80.32;96041.06;5091904;28;20202;-74
2022/01/05 10:10:37;;;;;;;1.50;1.40;;;;;;;3.59;79.94;96039.38;5092884;28;20212;-72
2022/01/05 10:13:04;;;;;;;2.10;1.67;;;;;;;3.64;78.48;96058.19;5094772;28;20223;-72
2022/01/05 10:15:32;;;;;;;2.13;1.77;;;;;;;3.64;78.96;96058.19;5095263;28;20208;-74
2022/01/05 10:18:12;;;;;;;1.73;1.53;;;;;;;3.65;79.89;96049.38;5096330;28;20212;-74
2022/01/05 10:20:39;;;;;;;3.63;2.00;;;;;;;3.63;80.24;96056.50;5095677;28;20206;-72
2022/01/05 10:23:08;;;;;;;4.23;1.90;;;;;;;3.67;77.50;96055.34;5104682;28;20202;-73
2022/01/05 10:25:34;;;;;;;3.50;2.30;;;;;;;3.76;78.46;96057.25;5116175;28;20222;-72
2022/01/05 10:28:02;;;;;;;3.53;2.57;;;;;;;3.84;79.25;96062.75;5098932;28;20216;-74
2022/01/05 10:30:37;;;;;;;5.87;3.67;;;;;;;3.98;79.20;96070.38;5097617;28;20198;-75
2022/01/05 10:33:04;;;;;;;2.43;2.00;;;;;;;4.17;79.89;96066.34;5100530;28;20212;-71
2022/01/05 10:35:31;;;;;;;2.43;2.00;;;;;;;4.17;78.56;96071.56;5099138;28;20208;-71
2022/01/05 10:38:01;;;;;;;2.53;1.67;;;;;;;4.15;79.79;96073.47;5095378;28;20201;-70
2022/01/05 10:40:28;;;;;;;2.83;2.20;;;;;;;4.21;76.23;96073.00;5094476;28;20212;-70
2022/01/05 10:42:56;;;;;;;1.70;1.60;;;;;;;4.19;76.64;96080.13;5095217;28;20212;-71
2022/01/05 10:45:24;;;;;;;2.13;1.90;;;;;;;4.22;72.57;96079.88;5094452;28;20305;-69
2022/01/05 10:48:07;;;;;;;2.80;1.90;;;;;;;4.18;71.88;96078.50;5096289;28;20251;-72
2022/01/05 10:50:34;;;;;;;1.70;1.60;;;;;;;4.07;72.45;96078.47;5097132;28;20254;-69
2022/01/05 10:53:01;;;;;;;2.07;1.80;;;;;;;4.10;72.04;96091.31;5095646;28;20216;-71
2022/01/05 10:55:29;;;;;;;2.90;1.93;;;;;;;4.04;70.73;96094.41;5095795;28;20252;-71
2022/01/05 10:57:58;;;;;;;2.13;1.53;;;;;;;4.08;70.95;96087.97;5096144;28;20213;-70
2022/01/05 11:00:33;;;;;;;2.93;1.60;;;;;;;3.94;71.89;96092.47;5095719;28;20197;-70
2022/01/05 11:02:59;;;;;;;2.63;1.60;;;;;;;3.75;72.45;96102.66;5096830;28;20204;-70
2022/01/05 11:05:27;;;;;;;4.47;1.53;;;;;;;3.74;72.04;96110.63;5096026;28;20216;-72
2022/01/05 11:08:09;;;;;;;3.83;1.70;;;;;;;3.79;72.60;96114.53;5096148;28;20208;-72
2022/01/05 11:10:36;;;;;;;2.17;1.60;;;;;;;3.84;71.96;96111.59;5097485;28;20204;-71
2022/01/05 11:13:02;;;;;;;2.40;1.70;;;;;;;3.87;72.25;96106.13;5103836;28;20208;-72
2022/01/05 11:15:31;;;;;;;1.93;1.80;;;;;;;3.86;71.14;96110.50;5103316;28;20232;-71
2022/01/05 11:18:10;;;;;;;3.20;2.00;;;;;;;3.82;71.99;96116.13;5104962;28;20201;-71
2022/01/05 11:20:39;;;;;;;2.27;1.97;;;;;;;3.91;73.06;96121.47;5100741;28;20189;-72
2022/01/05 11:23:06;;;;;;;2.33;1.63;;;;;;;3.87;72.25;96120.03;5097293;28;20220;-69
2022/01/05 11:25:35;;;;;;;2.37;1.60;;;;;;;3.88;70.16;96119.09;5097134;28;20273;-71
2022/01/05 11:28:01;;;;;;;2.97;1.63;;;;;;;3.90;69.57;96122.41;5096052;28;20206;-70
2022/01/05 11:30:28;;;;;;;2.20;1.63;;;;;;;3.93;67.97;96121.38;5095640;28;20217;-70
2022/01/05 11:32:55;;;;;;;3.37;1.70;;;;;;;3.90;66.31;96122.41;5097290;28;20205;-72
2022/01/05 11:35:21;;;;;;;2.77;1.90;;;;;;;3.88;67.74;96123.50;5096139;28;20221;-69
2022/01/05 11:37:50;;;;;;;3.10;1.63;;;;;;;3.93;67.49;96126.59;5095710;28;20215;-70
2022/01/05 11:40:17;;;;;;;3.63;1.50;;;;;;;3.94;68.14;96123.84;5095190;28;20204;-70
2022/01/05 11:42:48;;;;;;;2.17;1.53;;;;;;;3.95;67.76;96124.69;5095505;28;20201;-70
2022/01/05 11:45:28;;;;;;;1.47;1.30;;;;;;;3.99;68.88;96126.97;5095876;28;20266;-69